Stanitsa Kanevskaya, Russia
Current Conditions -  °F | °C
As of 2:30 AM on Tuesday 23 Dec 2014 (Local Time) from URKK Reporting Station
Clear Clear  
Wind Chill: 29°   Ceiling: Unl
Heat Index: 36°   Visibility: 6mi
Dew Point: 30°   Wind: 9mph
Humidity: 81%   Direction: 180°S
Pressure: 30.03"   Gusts: NA
Location:  46.07°N, 38.97°E
Report Text: URKK 222330Z 18004MPS CAVOK 02/M01 Q1017 NOSIG RMK QFE759SC070
Loading
Personal Weather Stations






























Interactive Weather Map New forecast layout! Learn more

10-Day Weather Forecast

Advertisements
Track Severe Weather on mobile